createdAt,value
2023-05-21T00:00:21.619Z,9.83
2023-05-21T00:02:48.201Z,8.30
2023-05-21T00:05:16.912Z,7.80
2023-05-21T00:07:43.992Z,8.23
2023-05-21T00:10:10.862Z,7.20
2023-05-21T00:12:37.340Z,7.80
2023-05-21T00:15:04.464Z,6.80
2023-05-21T00:17:31.040Z,8.07
2023-05-21T00:19:57.532Z,7.17
2023-05-21T00:22:24.120Z,6.93
2023-05-21T00:24:50.728Z,6.70
2023-05-21T00:27:17.329Z,7.60
2023-05-21T00:29:44.431Z,7.77
2023-05-21T00:32:11.527Z,7.17
2023-05-21T00:34:38.400Z,7.00
2023-05-21T00:37:05.193Z,7.47
2023-05-21T00:39:31.728Z,7.87
2023-05-21T00:41:58.351Z,7.50
2023-05-21T00:44:25.512Z,7.70
2023-05-21T00:46:55.527Z,7.30
2023-05-21T00:49:22.418Z,9.10
2023-05-21T00:51:49.625Z,8.00
2023-05-21T00:54:16.170Z,8.27
2023-05-21T00:56:42.767Z,8.10
2023-05-21T00:59:09.456Z,8.60
2023-05-21T01:01:37.048Z,8.23
2023-05-21T01:04:04.109Z,9.10
2023-05-21T01:06:34.567Z,7.80
2023-05-21T01:09:05.232Z,9.17
2023-05-21T01:11:40.048Z,8.63
2023-05-21T01:14:09.967Z,8.60
2023-05-21T01:16:42.260Z,9.03
2023-05-21T01:19:12.175Z,9.10
2023-05-21T01:21:46.379Z,9.30
2023-05-21T01:24:14.961Z,10.00
2023-05-21T01:26:42.813Z,9.03
2023-05-21T01:29:13.090Z,9.23
2023-05-21T01:32:15.786Z,8.80
2023-05-21T01:35:01.267Z,8.30
2023-05-21T01:37:51.675Z,8.53
2023-05-21T01:40:25.830Z,8.80
2023-05-21T01:42:52.610Z,8.00
2023-05-21T01:45:20.998Z,8.73
2023-05-21T01:47:50.369Z,8.27
2023-05-21T01:50:18.964Z,8.60
2023-05-21T01:52:53.713Z,7.80
2023-05-21T01:55:24.827Z,8.20
2023-05-21T01:57:53.537Z,8.83
2023-05-21T02:00:22.044Z,8.30
2023-05-21T02:02:49.303Z,8.50
2023-05-21T02:05:16.407Z,8.90
2023-05-21T02:07:43.943Z,9.00
2023-05-21T02:10:11.144Z,7.97
2023-05-21T02:12:38.047Z,8.67
2023-05-21T02:15:06.064Z,8.10
2023-05-21T02:17:34.077Z,8.83
2023-05-21T02:20:11.067Z,10.10
2023-05-21T02:22:42.068Z,9.27
2023-05-21T02:25:09.555Z,8.13
2023-05-21T02:27:37.554Z,9.33
2023-05-21T02:30:05.695Z,8.10
2023-05-21T02:32:32.542Z,7.83
2023-05-21T02:34:59.737Z,9.07
2023-05-21T02:37:29.608Z,8.93
2023-05-21T02:39:56.600Z,8.70
2023-05-21T02:42:23.611Z,8.60
2023-05-21T02:44:51.050Z,8.50
2023-05-21T02:47:18.858Z,8.23
2023-05-21T02:49:45.694Z,8.60
2023-05-21T02:52:12.762Z,7.53
2023-05-21T02:54:39.493Z,8.70
2023-05-21T02:57:06.089Z,8.43
2023-05-21T02:59:32.605Z,8.30
2023-05-21T03:01:59.141Z,8.00
2023-05-21T03:04:28.239Z,7.60
2023-05-21T03:06:55.359Z,7.80
2023-05-21T03:09:22.737Z,8.63
2023-05-21T03:11:49.950Z,8.20
2023-05-21T03:14:16.648Z,7.60
2023-05-21T03:16:43.810Z,8.00
2023-05-21T03:19:11.481Z,7.70
2023-05-21T03:21:38.134Z,8.30
2023-05-21T03:24:05.794Z,7.93
2023-05-21T03:26:32.304Z,8.07
2023-05-21T03:28:58.857Z,7.33
2023-05-21T03:31:26.457Z,8.67
2023-05-21T03:33:53.704Z,8.20
2023-05-21T03:36:20.839Z,8.00
2023-05-21T03:38:47.390Z,8.70
2023-05-21T03:41:13.918Z,7.20
2023-05-21T03:43:40.580Z,8.20
2023-05-21T03:46:07.201Z,7.70
2023-05-21T03:48:33.709Z,7.83
2023-05-21T03:51:00.197Z,8.33
2023-05-21T03:53:27.028Z,8.20
2023-05-21T03:55:55.419Z,8.20
2023-05-21T03:58:22.650Z,8.27
2023-05-21T04:00:49.194Z,8.30
2023-05-21T04:03:15.961Z,8.47
2023-05-21T04:05:42.897Z,8.40
2023-05-21T04:08:09.655Z,8.00
2023-05-21T04:10:36.175Z,8.30
2023-05-21T04:13:02.956Z,8.67
2023-05-21T04:15:29.534Z,7.60
2023-05-21T04:17:57.031Z,9.13
2023-05-21T04:20:23.636Z,8.87
2023-05-21T04:22:50.231Z,7.73
2023-05-21T04:25:16.746Z,8.47
2023-05-21T04:27:43.643Z,8.40
2023-05-21T04:30:11.197Z,8.50
2023-05-21T04:32:38.590Z,7.77
2023-05-21T04:35:05.746Z,7.60
2023-05-21T04:37:35.053Z,7.70
2023-05-21T04:40:02.618Z,7.93
2023-05-21T04:42:30.020Z,8.30
2023-05-21T04:44:59.353Z,7.97
2023-05-21T04:47:25.918Z,7.00
2023-05-21T04:49:53.404Z,7.40
2023-05-21T04:52:19.952Z,8.13
2023-05-21T04:54:47.941Z,7.50
2023-05-21T04:57:14.454Z,8.53
2023-05-21T04:59:41.464Z,7.40
2023-05-21T05:02:07.996Z,8.80
2023-05-21T05:04:34.505Z,8.10
2023-05-21T05:07:01.189Z,8.30
2023-05-21T05:09:28.097Z,8.60
2023-05-21T05:11:54.584Z,7.37
2023-05-21T05:14:21.157Z,7.73
2023-05-21T05:16:50.273Z,8.47
2023-05-21T05:19:16.958Z,7.53
2023-05-21T05:21:43.504Z,8.20
2023-05-21T05:24:09.984Z,9.00
2023-05-21T05:26:36.527Z,7.93
2023-05-21T05:29:03.059Z,7.80
2023-05-21T05:31:29.580Z,8.30
2023-05-21T05:33:56.169Z,8.47
2023-05-21T05:36:22.657Z,8.33
2023-05-21T05:38:49.173Z,8.87
2023-05-21T05:41:15.760Z,9.07
2023-05-21T05:43:42.253Z,8.90
2023-05-21T05:46:09.097Z,8.93
2023-05-21T05:48:35.673Z,8.50
2023-05-21T05:51:02.163Z,8.90
2023-05-21T05:53:28.668Z,9.00
2023-05-21T05:55:55.120Z,8.97
2023-05-21T05:58:21.623Z,8.40
2023-05-21T06:00:48.122Z,8.80
2023-05-21T06:03:14.778Z,7.43
2023-05-21T06:05:41.401Z,8.67
2023-05-21T06:08:07.916Z,8.07
2023-05-21T06:10:34.379Z,7.90
2023-05-21T06:13:00.949Z,9.50
2023-05-21T06:15:27.505Z,8.20
2023-05-21T06:17:54.143Z,9.13
2023-05-21T06:20:20.710Z,8.27
2023-05-21T06:22:47.276Z,8.07
2023-05-21T06:25:14.593Z,8.13
2023-05-21T06:27:41.110Z,8.53
2023-05-21T06:30:08.556Z,9.70
2023-05-21T06:32:35.143Z,8.07
2023-05-21T06:35:01.839Z,8.97
2023-05-21T06:37:28.323Z,9.37
2023-05-21T06:39:54.810Z,9.23
2023-05-21T06:42:21.390Z,9.73
2023-05-21T06:44:47.897Z,10.67
2023-05-21T06:47:14.445Z,9.20
2023-05-21T06:49:43.911Z,9.47
2023-05-21T06:52:11.191Z,10.70
2023-05-21T06:54:40.308Z,10.77
2023-05-21T06:57:08.507Z,10.23
2023-05-21T06:59:35.006Z,10.30
2023-05-21T07:02:04.337Z,9.70
2023-05-21T07:04:31.463Z,9.77
2023-05-21T07:06:58.143Z,10.23
2023-05-21T07:09:24.625Z,9.23
2023-05-21T07:11:52.969Z,10.80
2023-05-21T07:14:19.585Z,9.90
2023-05-21T07:16:46.250Z,10.50
2023-05-21T07:19:12.900Z,11.07
2023-05-21T07:21:39.420Z,10.20
2023-05-21T07:24:06.311Z,9.40
2023-05-21T07:26:32.828Z,9.60
2023-05-21T07:28:59.303Z,9.30
2023-05-21T07:31:26.067Z,9.73
2023-05-21T07:33:52.625Z,11.30
2023-05-21T07:36:19.137Z,10.70
2023-05-21T07:38:45.717Z,9.43
2023-05-21T07:41:12.262Z,10.30
2023-05-21T07:43:38.769Z,10.50
2023-05-21T07:46:05.347Z,11.00
2023-05-21T07:48:33.556Z,9.93
2023-05-21T07:51:01.400Z,10.03
2023-05-21T07:53:28.811Z,10.07
2023-05-21T07:55:55.483Z,10.03
2023-05-21T07:58:23.051Z,10.40
2023-05-21T08:00:51.042Z,9.77
2023-05-21T08:03:18.327Z,10.00
2023-05-21T08:05:49.028Z,9.90
2023-05-21T08:08:17.557Z,9.90
2023-05-21T08:10:44.661Z,10.30
2023-05-21T08:13:16.292Z,10.53
2023-05-21T08:15:43.086Z,10.10
2023-05-21T08:18:10.126Z,9.30
2023-05-21T08:20:36.968Z,9.40
2023-05-21T08:23:03.875Z,10.97
2023-05-21T08:25:30.487Z,11.80
2023-05-21T08:27:56.988Z,10.53
2023-05-21T08:30:23.495Z,10.40
2023-05-21T08:32:50.099Z,10.60
2023-05-21T08:35:16.667Z,10.30
2023-05-21T08:37:43.233Z,11.73
2023-05-21T08:40:12.346Z,11.43
2023-05-21T08:42:49.033Z,10.80
2023-05-21T08:45:22.097Z,10.73
2023-05-21T08:47:55.989Z,10.00
2023-05-21T08:50:26.172Z,16.10
2023-05-21T08:52:53.111Z,11.30
2023-05-21T08:55:19.904Z,11.40
2023-05-21T08:57:46.386Z,9.97
2023-05-21T09:00:14.251Z,10.70
2023-05-21T09:02:41.149Z,11.47
2023-05-21T09:05:09.641Z,10.40
2023-05-21T09:07:47.138Z,12.97
2023-05-21T09:10:14.452Z,24.77
2023-05-21T09:12:41.238Z,11.63
2023-05-21T09:15:11.113Z,11.73
2023-05-21T09:17:37.711Z,11.33
2023-05-21T09:20:17.571Z,10.73
2023-05-21T09:22:46.163Z,11.33
2023-05-21T09:25:15.843Z,11.30
2023-05-21T09:27:42.835Z,10.37
2023-05-21T09:30:12.238Z,11.93
2023-05-21T09:32:39.997Z,11.20
2023-05-21T09:35:16.222Z,12.00
2023-05-21T09:37:45.079Z,11.03
2023-05-21T09:40:16.603Z,13.70
2023-05-21T09:42:48.514Z,13.73
2023-05-21T09:45:19.860Z,12.47
2023-05-21T09:47:48.016Z,12.53
2023-05-21T09:50:19.764Z,12.27
2023-05-21T09:52:46.945Z,11.50
2023-05-21T09:55:14.987Z,12.53
2023-05-21T09:57:48.070Z,13.70
2023-05-21T10:00:24.161Z,12.33
2023-05-21T10:02:54.720Z,12.73
2023-05-21T10:05:23.882Z,11.70
2023-05-21T10:07:52.130Z,11.03
2023-05-21T10:10:22.804Z,12.10
2023-05-21T10:12:58.121Z,11.90
2023-05-21T10:15:26.116Z,13.23
2023-05-21T10:17:52.936Z,12.17
2023-05-21T10:20:20.899Z,13.10
2023-05-21T10:22:48.046Z,11.97
2023-05-21T10:25:15.662Z,12.17
2023-05-21T10:27:42.556Z,12.67
2023-05-21T10:30:10.048Z,12.07
2023-05-21T10:32:36.734Z,12.53
2023-05-21T10:35:03.617Z,13.57
2023-05-21T10:37:30.169Z,12.83
2023-05-21T10:39:57.227Z,12.53
2023-05-21T10:42:23.706Z,13.10
2023-05-21T10:45:15.475Z,19.47
2023-05-21T10:48:19.216Z,13.20
2023-05-21T10:50:56.457Z,11.93
2023-05-21T10:54:01.356Z,13.00
2023-05-21T10:56:34.369Z,13.13
2023-05-21T10:59:10.155Z,13.20
2023-05-21T11:01:39.400Z,13.53
2023-05-21T11:04:06.374Z,13.87
2023-05-21T11:06:33.041Z,13.17
2023-05-21T11:09:17.801Z,13.23
2023-05-21T11:11:52.312Z,13.13
2023-05-21T11:14:32.809Z,12.73
2023-05-21T11:17:00.355Z,15.17
2023-05-21T11:19:44.099Z,13.90
2023-05-21T11:22:10.697Z,13.00
2023-05-21T11:24:39.680Z,13.20
2023-05-21T11:27:07.108Z,15.40
2023-05-21T11:29:44.055Z,13.60
2023-05-21T11:32:12.861Z,14.10
2023-05-21T11:34:41.808Z,12.63
2023-05-21T11:37:17.426Z,13.37
2023-05-21T11:39:48.133Z,14.10
2023-05-21T11:42:30.423Z,12.43
2023-05-21T11:44:59.086Z,13.07
2023-05-21T11:47:27.113Z,12.97
2023-05-21T11:49:54.563Z,13.30
2023-05-21T11:52:21.514Z,13.00
2023-05-21T11:54:58.128Z,14.10
2023-05-21T11:57:31.100Z,14.47
2023-05-21T11:59:59.170Z,31.37
2023-05-21T12:02:28.574Z,27.20
2023-05-21T12:04:59.911Z,13.47
2023-05-21T12:07:31.371Z,14.00
2023-05-21T12:09:58.421Z,13.60
2023-05-21T12:12:29.359Z,13.97
2023-05-21T12:15:02.599Z,15.40
2023-05-21T12:17:31.515Z,16.33
2023-05-21T12:19:59.320Z,14.20
2023-05-21T12:22:28.015Z,14.53
2023-05-21T12:24:54.694Z,15.63
2023-05-21T12:27:22.199Z,12.90
2023-05-21T12:29:53.080Z,14.37
2023-05-21T12:32:21.034Z,19.00
2023-05-21T12:34:52.901Z,15.80
2023-05-21T12:37:27.905Z,13.10
2023-05-21T12:39:56.093Z,12.07
2023-05-21T12:42:27.493Z,13.33
2023-05-21T12:44:54.447Z,12.50
2023-05-21T12:47:24.535Z,12.20
2023-05-21T12:49:55.478Z,11.70
2023-05-21T12:52:22.414Z,14.17
2023-05-21T12:54:54.273Z,13.87
2023-05-21T12:57:25.576Z,14.10
2023-05-21T12:59:57.431Z,14.13
2023-05-21T13:02:25.718Z,13.37
2023-05-21T13:05:00.473Z,14.37
2023-05-21T13:07:28.586Z,13.07
2023-05-21T13:09:55.956Z,13.50
2023-05-21T13:12:26.055Z,14.63
2023-05-21T13:14:54.017Z,13.80
2023-05-21T13:17:21.291Z,12.40
2023-05-21T13:20:09.862Z,12.70
2023-05-21T13:22:39.164Z,13.30
2023-05-21T13:25:07.145Z,13.50
2023-05-21T13:27:33.675Z,13.93
2023-05-21T13:30:01.010Z,14.50
2023-05-21T13:32:27.900Z,13.90
2023-05-21T13:34:54.438Z,14.10
2023-05-21T13:37:21.216Z,11.70
2023-05-21T13:39:47.991Z,12.90
2023-05-21T13:42:14.611Z,12.73
2023-05-21T13:44:41.229Z,15.80
2023-05-21T13:47:10.226Z,13.97
2023-05-21T13:49:37.277Z,12.80
2023-05-21T13:52:04.504Z,15.90
2023-05-21T13:54:31.196Z,12.50
2023-05-21T13:56:57.961Z,12.77
2023-05-21T13:59:24.514Z,14.33
2023-05-21T14:01:52.363Z,27.40
2023-05-21T15:43:42.768Z,21.43
2023-05-21T15:46:09.381Z,23.90
2023-05-21T15:48:36.028Z,24.60
2023-05-21T15:51:02.522Z,17.23
2023-05-21T15:53:29.126Z,16.60
2023-05-21T15:55:56.695Z,16.77
2023-05-21T15:58:23.252Z,17.10
2023-05-21T16:00:49.986Z,40.93
2023-05-21T16:03:16.756Z,25.80
2023-05-21T16:05:43.317Z,19.20
2023-05-21T16:08:11.428Z,18.80
2023-05-21T16:10:39.991Z,18.90
2023-05-21T16:13:06.692Z,15.80
2023-05-21T16:15:33.372Z,15.63
2023-05-21T16:18:01.011Z,13.93
2023-05-21T16:20:27.574Z,14.67
2023-05-21T16:22:54.050Z,14.70
2023-05-21T16:25:23.366Z,14.70
2023-05-21T16:27:49.956Z,15.67
2023-05-21T16:30:16.485Z,14.77
2023-05-21T16:32:43.124Z,15.63
2023-05-21T16:35:09.676Z,15.67
2023-05-21T16:37:36.169Z,15.57
2023-05-21T16:40:05.737Z,13.60
2023-05-21T16:42:32.250Z,13.30
2023-05-21T16:44:58.778Z,14.23
2023-05-21T16:47:25.297Z,14.53
2023-05-21T16:49:51.787Z,14.30
2023-05-21T16:52:18.514Z,15.10
2023-05-21T16:54:48.812Z,14.23
2023-05-21T16:57:15.669Z,11.77
2023-05-21T16:59:43.485Z,12.00
2023-05-21T17:02:12.811Z,11.90
2023-05-21T17:04:39.307Z,12.30
2023-05-21T17:07:06.070Z,11.13
2023-05-21T17:09:32.607Z,12.40
2023-05-21T17:11:59.066Z,12.60
2023-05-21T17:14:34.314Z,11.23
2023-05-21T17:17:01.649Z,12.57
2023-05-21T17:19:28.381Z,12.60
2023-05-21T17:21:55.621Z,11.37
2023-05-21T17:24:22.186Z,11.23
2023-05-21T17:26:48.727Z,13.13
2023-05-21T17:29:15.350Z,12.20
2023-05-21T17:31:42.224Z,11.50
2023-05-21T17:34:08.744Z,13.20
2023-05-21T17:36:36.824Z,12.67
2023-05-21T17:39:03.340Z,12.57
2023-05-21T17:41:29.949Z,12.33
2023-05-21T17:43:57.086Z,11.47
2023-05-21T17:46:23.684Z,12.20
2023-05-21T17:48:50.344Z,12.03
2023-05-21T17:51:16.959Z,20.23
2023-05-21T17:53:43.580Z,24.47
2023-05-21T17:56:11.316Z,13.80
2023-05-21T17:58:37.891Z,13.47
2023-05-21T18:01:04.552Z,14.50
2023-05-21T18:03:31.103Z,10.93
2023-05-21T18:05:57.561Z,15.20
2023-05-21T18:08:24.168Z,12.93
2023-05-21T18:10:50.783Z,15.73
2023-05-21T18:13:17.371Z,13.20
2023-05-21T18:15:43.855Z,12.70
2023-05-21T18:18:19.827Z,12.33
2023-05-21T18:20:48.208Z,13.10
2023-05-21T18:23:14.888Z,13.00
2023-05-21T18:25:41.430Z,12.87
2023-05-21T18:28:09.111Z,12.97
2023-05-21T18:30:35.974Z,14.40
2023-05-21T18:33:02.861Z,15.13
2023-05-21T18:35:31.023Z,13.90
2023-05-21T18:37:57.800Z,12.30
2023-05-21T18:40:27.917Z,12.57
2023-05-21T18:42:55.702Z,13.80
2023-05-21T18:45:22.258Z,13.83
2023-05-21T18:47:48.876Z,11.90
2023-05-21T18:50:15.717Z,12.53
2023-05-21T18:52:42.299Z,13.33
2023-05-21T18:55:09.391Z,14.30
2023-05-21T18:57:35.963Z,13.67
2023-05-21T19:00:02.505Z,13.30
2023-05-21T19:02:29.811Z,13.20
2023-05-21T19:04:56.469Z,12.80
2023-05-21T19:07:22.984Z,14.33
2023-05-21T19:09:49.505Z,13.40
2023-05-21T19:12:16.026Z,14.77
2023-05-21T19:14:45.447Z,15.47
2023-05-21T19:17:13.533Z,16.20
2023-05-21T19:19:40.344Z,16.03
2023-05-21T19:22:07.405Z,15.53
2023-05-21T19:24:34.002Z,16.30
2023-05-21T19:27:00.769Z,17.40
2023-05-21T19:29:28.790Z,16.27
2023-05-21T19:31:56.105Z,18.07
2023-05-21T19:34:23.514Z,16.67
2023-05-21T19:36:53.331Z,19.07
2023-05-21T19:39:20.369Z,18.93
2023-05-21T19:41:46.887Z,20.43
2023-05-21T19:44:13.358Z,19.03
2023-05-21T19:46:39.951Z,19.60
2023-05-21T19:49:06.492Z,18.30
2023-05-21T19:51:32.979Z,21.07
2023-05-21T19:53:59.481Z,19.40
2023-05-21T19:56:26.734Z,19.83
2023-05-21T19:58:53.277Z,18.40
2023-05-21T20:01:19.876Z,20.50
2023-05-21T20:03:46.578Z,19.60
2023-05-21T20:06:15.406Z,18.93
2023-05-21T20:08:44.983Z,20.27
2023-05-21T20:11:11.630Z,18.90
2023-05-21T20:13:38.177Z,20.77
2023-05-21T20:16:05.002Z,20.97
2023-05-21T20:18:31.499Z,18.77
2023-05-21T20:20:57.992Z,20.20
2023-05-21T20:23:24.627Z,19.20
2023-05-21T20:25:51.172Z,21.33
2023-05-21T20:28:19.361Z,19.30
2023-05-21T20:30:54.773Z,20.70
2023-05-21T20:33:21.319Z,20.57
2023-05-21T20:35:47.894Z,20.00
2023-05-21T20:38:15.874Z,20.10
2023-05-21T20:40:43.443Z,19.70
2023-05-21T20:43:18.613Z,21.30
2023-05-21T20:45:49.840Z,20.90
2023-05-21T20:48:16.965Z,20.17
2023-05-21T20:50:48.971Z,33.57
2023-05-21T20:53:15.854Z,49.83
2023-05-21T20:55:44.449Z,21.17
2023-05-21T20:58:11.621Z,21.40
2023-05-21T21:00:44.872Z,22.30
2023-05-21T21:03:11.713Z,21.50
2023-05-21T21:05:38.914Z,21.17
2023-05-21T21:08:05.910Z,22.20
2023-05-21T21:10:32.990Z,23.40
2023-05-21T21:12:59.422Z,22.07
2023-05-21T21:15:26.016Z,22.80
2023-05-21T21:17:52.572Z,22.17
2023-05-21T21:20:19.368Z,23.03
2023-05-21T21:22:46.185Z,23.23
2023-05-21T21:25:15.984Z,22.50
2023-05-21T21:27:43.320Z,22.60
2023-05-21T21:30:10.388Z,22.83
2023-05-21T21:32:37.081Z,22.63
2023-05-21T21:35:03.865Z,22.77
2023-05-21T21:37:30.324Z,22.27
2023-05-21T21:39:56.851Z,23.50
2023-05-21T21:42:23.514Z,21.17
2023-05-21T21:44:49.998Z,22.30
2023-05-21T21:47:16.504Z,21.83
2023-05-21T21:49:43.073Z,21.10
2023-05-21T21:52:10.793Z,21.40
2023-05-21T21:54:37.346Z,17.53
2023-05-21T21:57:03.919Z,17.70
2023-05-21T21:59:30.512Z,16.60
2023-05-21T22:01:57.093Z,16.07
2023-05-21T22:04:23.620Z,17.63
2023-05-21T22:06:50.263Z,21.00
2023-05-21T22:09:17.537Z,21.27
2023-05-21T22:11:44.167Z,21.40
2023-05-21T22:14:11.520Z,19.07
2023-05-21T22:16:38.352Z,21.83
2023-05-21T22:19:05.005Z,21.80
2023-05-21T22:21:32.979Z,22.13
2023-05-21T22:24:00.058Z,20.83
2023-05-21T22:26:26.652Z,20.93
2023-05-21T22:28:53.329Z,20.37
2023-05-21T22:31:20.008Z,19.20
2023-05-21T22:33:46.798Z,19.57
2023-05-21T22:36:13.252Z,18.17
2023-05-21T22:38:39.709Z,18.43
2023-05-21T22:41:06.298Z,19.87
2023-05-21T22:43:34.769Z,17.20
2023-05-21T22:46:01.885Z,18.23
2023-05-21T22:48:30.653Z,20.20
2023-05-21T22:50:58.334Z,20.40
2023-05-21T22:53:25.650Z,22.00
2023-05-21T22:55:52.157Z,20.63
2023-05-21T22:58:19.178Z,23.37
2023-05-21T23:00:46.856Z,20.90
2023-05-21T23:03:13.472Z,21.93
2023-05-21T23:05:40.206Z,22.63
2023-05-21T23:08:06.717Z,22.40
2023-05-21T23:10:33.936Z,25.17
2023-05-21T23:13:00.460Z,22.30
2023-05-21T23:15:29.495Z,23.63
2023-05-21T23:17:56.980Z,21.60
2023-05-21T23:20:24.593Z,22.93
2023-05-21T23:22:51.190Z,22.30
2023-05-21T23:25:17.827Z,22.57
2023-05-21T23:27:44.911Z,22.17
2023-05-21T23:30:12.073Z,20.63
2023-05-21T23:32:38.902Z,22.57
2023-05-21T23:35:05.945Z,21.97
2023-05-21T23:37:32.474Z,21.40
2023-05-21T23:39:59.002Z,22.10
2023-05-21T23:42:25.530Z,21.30
2023-05-21T23:44:51.988Z,20.17
2023-05-21T23:47:18.461Z,20.80
2023-05-21T23:49:44.913Z,21.47
2023-05-21T23:52:13.400Z,18.73
2023-05-21T23:54:39.919Z,20.10
2023-05-21T23:57:06.497Z,19.80
2023-05-21T23:59:33.052Z,18.80
